createdAt,value
2023-05-06T00:00:41.093Z,1014.8
2023-05-06T00:02:35.821Z,1014.78
2023-05-06T00:04:35.687Z,1014.78
2023-05-06T00:06:35.629Z,1014.84
2023-05-06T00:08:35.981Z,1014.84
2023-05-06T00:10:35.345Z,1014.84
2023-05-06T00:12:35.992Z,1014.84
2023-05-06T00:14:35.436Z,1014.86
2023-05-06T00:16:35.211Z,1014.86
2023-05-06T00:18:35.608Z,1014.81
2023-05-06T00:20:35.120Z,1014.81
2023-05-06T00:22:35.525Z,1014.87
2023-05-06T00:24:35.119Z,1014.87
2023-05-06T00:26:35.670Z,1014.77
2023-05-06T00:28:35.204Z,1014.77
2023-05-06T00:30:35.830Z,1014.7
2023-05-06T00:32:35.679Z,1014.7
2023-05-06T00:34:35.789Z,1014.81
2023-05-06T00:36:35.304Z,1014.81
2023-05-06T00:38:35.768Z,1014.77
2023-05-06T00:40:35.359Z,1014.77
2023-05-06T00:42:35.757Z,1014.7
2023-05-06T00:44:35.113Z,1014.7
2023-05-06T00:46:36.025Z,1014.73
2023-05-06T00:48:35.589Z,1014.73
2023-05-06T00:50:35.868Z,1014.61
2023-05-06T00:52:35.326Z,1014.61
2023-05-06T00:54:35.735Z,1014.49
2023-05-06T00:56:35.229Z,1014.49
2023-05-06T00:58:35.523Z,1014.47
2023-05-06T01:00:39.046Z,1014.47
2023-05-06T01:02:47.818Z,1014.55
2023-05-06T01:04:35.733Z,1014.55
2023-05-06T01:06:35.806Z,1014.4
2023-05-06T01:08:35.467Z,1014.4
2023-05-06T01:10:35.069Z,1014.48
2023-05-06T01:12:35.495Z,1014.48
2023-05-06T01:14:35.032Z,1014.44
2023-05-06T01:16:35.581Z,1014.44
2023-05-06T01:18:36.245Z,1014.4
2023-05-06T01:20:35.713Z,1014.4
2023-05-06T01:22:34.969Z,1014.49
2023-05-06T01:24:35.485Z,1014.49
2023-05-06T01:26:35.898Z,1014.58
2023-05-06T01:28:35.419Z,1014.58
2023-05-06T01:30:35.786Z,1014.52
2023-05-06T01:32:35.234Z,1014.52
2023-05-06T01:34:35.538Z,1014.58
2023-05-06T01:36:35.073Z,1014.58
2023-05-06T01:38:35.373Z,1014.55
2023-05-06T01:40:35.938Z,1014.55
2023-05-06T01:42:35.287Z,1014.61
2023-05-06T01:44:35.800Z,1014.61
2023-05-06T01:46:35.351Z,1014.7
2023-05-06T01:48:35.607Z,1014.7
2023-05-06T01:50:35.904Z,1014.68
2023-05-06T01:52:35.414Z,1014.68
2023-05-06T01:54:35.839Z,1014.69
2023-05-06T01:56:35.214Z,1014.69
2023-05-06T01:58:35.701Z,1014.57
2023-05-06T02:00:39.263Z,1014.57
2023-05-06T02:02:36.568Z,1014.76
2023-05-06T02:04:35.631Z,1014.76
2023-05-06T02:06:35.935Z,1014.77
2023-05-06T02:08:35.247Z,1014.77
2023-05-06T02:10:35.812Z,1014.76
2023-05-06T02:12:35.358Z,1014.76
2023-05-06T02:14:35.684Z,1014.81
2023-05-06T02:16:35.351Z,1014.81
2023-05-06T02:18:35.812Z,1014.79
2023-05-06T02:20:34.967Z,1014.79
2023-05-06T02:22:35.561Z,1014.77
2023-05-06T02:24:34.954Z,1014.77
2023-05-06T02:26:35.499Z,1014.76
2023-05-06T02:28:35.949Z,1014.76
2023-05-06T02:30:35.550Z,1014.81
2023-05-06T02:32:35.181Z,1014.81
2023-05-06T02:34:35.566Z,1014.92
2023-05-06T02:36:35.017Z,1014.92
2023-05-06T02:38:35.457Z,1014.85
2023-05-06T02:40:35.047Z,1014.85
2023-05-06T02:42:35.810Z,1014.86
2023-05-06T02:44:35.048Z,1014.86
2023-05-06T02:46:36.136Z,1014.8
2023-05-06T02:48:35.163Z,1014.91
2023-05-06T02:50:35.903Z,1014.91
2023-05-06T02:52:35.337Z,1014.87
2023-05-06T02:54:35.773Z,1014.87
2023-05-06T02:56:35.252Z,1014.83
2023-05-06T02:58:35.719Z,1014.83
2023-05-06T03:00:38.315Z,1014.92
2023-05-06T03:02:35.234Z,1014.92
2023-05-06T03:04:35.828Z,1014.87
2023-05-06T03:06:35.029Z,1014.87
2023-05-06T03:08:35.641Z,1014.87
2023-05-06T03:10:35.237Z,1014.87
2023-05-06T03:12:35.631Z,1014.86
2023-05-06T03:14:34.991Z,1014.86
2023-05-06T03:16:35.631Z,1014.78
2023-05-06T03:18:36.004Z,1014.78
2023-05-06T03:20:35.310Z,1014.77
2023-05-06T03:22:35.817Z,1014.77
2023-05-06T03:24:35.146Z,1014.7
2023-05-06T03:26:35.612Z,1014.7
2023-05-06T03:28:35.123Z,1014.7
2023-05-06T03:30:35.805Z,1014.7
2023-05-06T03:32:35.386Z,1014.51
2023-05-06T03:34:35.709Z,1014.51
2023-05-06T03:36:35.321Z,1014.62
2023-05-06T03:38:35.694Z,1014.62
2023-05-06T03:40:35.326Z,1014.78
2023-05-06T03:42:35.773Z,1014.78
2023-05-06T03:44:35.254Z,1014.77
2023-05-06T03:46:36.253Z,1014.77
2023-05-06T03:48:35.543Z,1014.77
2023-05-06T03:50:35.714Z,1014.77
2023-05-06T03:52:35.293Z,1014.86
2023-05-06T03:54:35.863Z,1014.86
2023-05-06T03:56:35.484Z,1014.85
2023-05-06T03:58:35.966Z,1014.85
2023-05-06T04:00:39.302Z,1014.76
2023-05-06T04:02:35.935Z,1014.76
2023-05-06T04:04:35.183Z,1014.84
2023-05-06T04:06:35.594Z,1014.84
2023-05-06T04:08:35.321Z,1014.81
2023-05-06T04:10:35.896Z,1014.81
2023-05-06T04:12:35.461Z,1014.78
2023-05-06T04:14:35.139Z,1014.78
2023-05-06T04:16:35.973Z,1014.95
2023-05-06T04:18:35.328Z,1014.95
2023-05-06T04:20:35.549Z,1014.91
2023-05-06T04:22:35.117Z,1014.91
2023-05-06T04:24:35.748Z,1014.91
2023-05-06T04:26:35.260Z,1014.91
2023-05-06T04:28:35.762Z,1014.91
2023-05-06T04:30:35.172Z,1014.91
2023-05-06T04:32:35.955Z,1014.94
2023-05-06T04:34:35.277Z,1014.94
2023-05-06T04:36:35.755Z,1014.93
2023-05-06T04:38:35.190Z,1014.93
2023-05-06T04:40:35.675Z,1014.97
2023-05-06T04:42:35.317Z,1014.97
2023-05-06T04:44:35.777Z,1015.03
2023-05-06T04:46:35.474Z,1015.03
2023-05-06T04:48:35.675Z,1015.16
2023-05-06T04:50:35.148Z,1015.16
2023-05-06T04:52:35.653Z,1015.05
2023-05-06T04:54:35.302Z,1015.05
2023-05-06T04:56:35.794Z,1015.12
2023-05-06T04:58:35.227Z,1015.12
2023-05-06T05:00:38.765Z,1015.08
2023-05-06T05:02:36.422Z,1015.08
2023-05-06T05:04:35.518Z,1015.06
2023-05-06T05:06:34.979Z,1015.06
2023-05-06T05:08:35.416Z,1015.18
2023-05-06T05:10:35.998Z,1015.18
2023-05-06T05:12:35.507Z,1015.27
2023-05-06T05:14:36.383Z,1015.27
2023-05-06T05:16:35.589Z,1015.2
2023-05-06T05:18:35.987Z,1015.2
2023-05-06T05:20:35.393Z,1015.2
2023-05-06T05:22:35.242Z,1015.2
2023-05-06T05:24:35.493Z,1015.23
2023-05-06T05:26:35.915Z,1015.23
2023-05-06T05:28:35.353Z,1015.25
2023-05-06T05:30:36.137Z,1015.25
2023-05-06T05:32:35.596Z,1015.32
2023-05-06T05:34:35.889Z,1015.32
2023-05-06T05:36:35.314Z,1015.26
2023-05-06T05:38:35.845Z,1015.26
2023-05-06T05:40:35.559Z,1015.22
2023-05-06T05:42:36.053Z,1015.22
2023-05-06T05:44:35.319Z,1015.34
2023-05-06T05:46:36.013Z,1015.34
2023-05-06T05:48:35.426Z,1015.3
2023-05-06T05:50:35.825Z,1015.3
2023-05-06T05:52:35.402Z,1015.32
2023-05-06T05:54:35.866Z,1015.32
2023-05-06T05:56:35.422Z,1015.21
2023-05-06T05:58:36.027Z,1015.21
2023-05-06T06:00:39.185Z,1015.3
2023-05-06T06:02:35.774Z,1015.3
2023-05-06T06:04:35.586Z,1015.29
2023-05-06T06:06:35.626Z,1015.29
2023-05-06T06:08:37.752Z,1015.12
2023-05-06T06:10:35.860Z,1015.18
2023-05-06T06:12:35.200Z,1015.18
2023-05-06T06:14:35.813Z,1015.28
2023-05-06T06:16:35.771Z,1015.28
2023-05-06T06:18:36.095Z,1015.25
2023-05-06T06:20:35.599Z,1015.25
2023-05-06T06:22:34.946Z,1015.3
2023-05-06T06:24:35.525Z,1015.3
2023-05-06T06:26:35.897Z,1015.39
2023-05-06T06:28:35.280Z,1015.39
2023-05-06T06:30:35.833Z,1015.34
2023-05-06T06:32:35.501Z,1015.34
2023-05-06T06:34:35.618Z,1015.44
2023-05-06T06:36:35.119Z,1015.44
2023-05-06T06:38:35.735Z,1015.39
2023-05-06T06:40:35.339Z,1015.39
2023-05-06T06:42:35.818Z,1015.48
2023-05-06T06:44:35.272Z,1015.48
2023-05-06T06:46:36.108Z,1015.51
2023-05-06T06:48:35.460Z,1015.51
2023-05-06T06:50:35.770Z,1015.42
2023-05-06T06:52:35.099Z,1015.42
2023-05-06T06:54:35.574Z,1015.48
2023-05-06T06:56:35.885Z,1015.48
2023-05-06T06:58:35.461Z,1015.6
2023-05-06T07:00:38.929Z,1015.6
2023-05-06T07:02:35.856Z,1015.55
2023-05-06T07:04:35.373Z,1015.55
2023-05-06T07:06:35.662Z,1015.55
2023-05-06T07:08:35.108Z,1015.55
2023-05-06T07:10:35.583Z,1015.61
2023-05-06T07:12:35.914Z,1015.61
2023-05-06T07:14:35.532Z,1015.62
2023-05-06T07:16:35.132Z,1015.62
2023-05-06T07:18:35.756Z,1015.67
2023-05-06T07:20:35.112Z,1015.67
2023-05-06T07:22:35.520Z,1015.64
2023-05-06T07:24:35.946Z,1015.64
2023-05-06T07:26:35.381Z,1015.69
2023-05-06T07:28:35.615Z,1015.69
2023-05-06T07:30:35.109Z,1015.65
2023-05-06T07:32:35.620Z,1015.65
2023-05-06T07:34:35.981Z,1015.7
2023-05-06T07:36:36.442Z,1015.7
2023-05-06T07:38:35.760Z,1015.73
2023-05-06T07:40:35.461Z,1015.73
2023-05-06T07:42:35.836Z,1015.66
2023-05-06T07:44:35.323Z,1015.66
2023-05-06T07:46:36.223Z,1015.62
2023-05-06T07:48:35.540Z,1015.62
2023-05-06T07:50:35.808Z,1015.67
2023-05-06T07:52:35.260Z,1015.67
2023-05-06T07:54:35.793Z,1015.6
2023-05-06T07:56:35.259Z,1015.6
2023-05-06T07:58:35.896Z,1015.64
2023-05-06T08:00:38.938Z,1015.64
2023-05-06T08:02:35.222Z,1015.74
2023-05-06T08:04:36.323Z,1015.74
2023-05-06T08:06:35.350Z,1015.77
2023-05-06T08:08:35.827Z,1015.77
2023-05-06T08:10:35.386Z,1015.73
2023-05-06T08:12:35.932Z,1015.73
2023-05-06T08:14:35.281Z,1015.71
2023-05-06T08:16:37.120Z,1015.71
2023-05-06T08:18:52.162Z,1015.72
2023-05-06T08:20:35.113Z,1015.72
2023-05-06T08:22:35.675Z,1015.85
2023-05-06T08:24:34.891Z,1015.85
2023-05-06T08:26:35.553Z,1015.87
2023-05-06T08:28:36.697Z,1015.87
2023-05-06T08:30:35.616Z,1015.79
2023-05-06T08:32:35.506Z,1015.79
2023-05-06T08:34:35.573Z,1015.77
2023-05-06T08:36:35.890Z,1015.77
2023-05-06T08:38:35.986Z,1015.74
2023-05-06T08:40:36.001Z,1015.74
2023-05-06T08:42:35.371Z,1015.73
2023-05-06T08:44:35.701Z,1015.73
2023-05-06T08:46:35.387Z,1015.75
2023-05-06T08:48:35.773Z,1015.75
2023-05-06T08:50:35.441Z,1015.7
2023-05-06T08:52:35.845Z,1015.7
2023-05-06T08:54:35.290Z,1015.79
2023-05-06T08:56:35.789Z,1015.79
2023-05-06T08:58:35.322Z,1015.72
2023-05-06T09:00:38.860Z,1015.72
2023-05-06T09:02:35.495Z,1015.72
2023-05-06T09:04:35.939Z,1015.72
2023-05-06T09:06:35.446Z,1015.71
2023-05-06T09:08:35.754Z,1015.71
2023-05-06T09:10:35.446Z,1015.63
2023-05-06T09:12:34.923Z,1015.63
2023-05-06T09:14:35.427Z,1015.73
2023-05-06T09:16:35.985Z,1015.73
2023-05-06T09:18:35.553Z,1015.77
2023-05-06T09:20:35.630Z,1015.77
2023-05-06T09:22:35.219Z,1015.72
2023-05-06T09:24:35.778Z,1015.72
2023-05-06T09:26:35.444Z,1015.72
2023-05-06T09:28:35.782Z,1015.72
2023-05-06T09:30:35.225Z,1015.76
2023-05-06T09:32:37.466Z,1015.76
2023-05-06T09:34:35.349Z,1015.64
2023-05-06T09:36:35.071Z,1015.64
2023-05-06T09:38:35.701Z,1015.64
2023-05-06T09:40:35.301Z,1015.62
2023-05-06T09:42:35.658Z,1015.62
2023-05-06T09:44:35.320Z,1015.49
2023-05-06T09:46:36.274Z,1015.49
2023-05-06T09:48:35.497Z,1015.48
2023-05-06T09:50:35.665Z,1015.48
2023-05-06T09:52:35.175Z,1015.41
2023-05-06T09:54:35.588Z,1015.41
2023-05-06T09:56:35.047Z,1015.53
2023-05-06T09:58:35.534Z,1015.53
2023-05-06T10:00:39.673Z,1015.5
2023-05-06T10:02:35.587Z,1015.5
2023-05-06T10:04:38.042Z,1015.56
2023-05-06T10:06:35.123Z,1015.56
2023-05-06T10:08:35.690Z,1015.55
2023-05-06T10:10:36.945Z,1015.55
2023-05-06T10:12:35.858Z,1015.48
2023-05-06T10:14:35.426Z,1015.48
2023-05-06T10:16:38.340Z,1015.43
2023-05-06T10:18:35.534Z,1015.43
2023-05-06T10:20:35.878Z,1015.5
2023-05-06T10:22:36.785Z,1015.5
2023-05-06T10:24:35.721Z,1015.4
2023-05-06T10:26:35.136Z,1015.4
2023-05-06T10:28:51.748Z,1015.27
2023-05-06T10:30:35.137Z,1015.27
2023-05-06T10:32:35.959Z,1015.31
2023-05-06T10:34:35.087Z,1015.31
2023-05-06T10:36:35.622Z,1015.29
2023-05-06T10:38:35.944Z,1015.29
2023-05-06T10:40:35.644Z,1015.36
2023-05-06T10:42:35.074Z,1015.36
2023-05-06T10:44:35.513Z,1015.33
2023-05-06T10:46:36.093Z,1015.33
2023-05-06T10:48:35.416Z,1015.23
2023-05-06T10:50:35.810Z,1015.23
2023-05-06T10:52:35.245Z,1015.28
2023-05-06T10:54:35.743Z,1015.28
2023-05-06T10:56:35.374Z,1015.2
2023-05-06T10:58:35.872Z,1015.2
2023-05-06T11:00:35.580Z,1015.25
2023-05-06T11:02:35.875Z,1015.25
2023-05-06T11:04:35.819Z,1015.2
2023-05-06T11:06:35.342Z,1015.2
2023-05-06T11:08:35.761Z,1015.15
2023-05-06T11:10:35.496Z,1015.15
2023-05-06T11:12:35.791Z,1015.15
2023-05-06T11:14:35.270Z,1015.15
2023-05-06T11:16:37.575Z,1015.12
2023-05-06T11:18:35.318Z,1015.12
2023-05-06T11:20:35.777Z,1015.09
2023-05-06T11:22:34.972Z,1015.09
2023-05-06T11:24:35.480Z,1014.93
2023-05-06T11:26:35.907Z,1014.93
2023-05-06T11:28:35.612Z,1015.02
2023-05-06T11:30:35.985Z,1015.02
2023-05-06T11:32:35.652Z,1015.04
2023-05-06T11:34:34.985Z,1015.04
2023-05-06T11:36:35.613Z,1014.94
2023-05-06T11:38:35.209Z,1014.94
2023-05-06T11:40:35.679Z,1015.06
2023-05-06T11:42:35.053Z,1015.06
2023-05-06T11:44:35.190Z,1015.01
2023-05-06T11:46:35.894Z,1015.01
2023-05-06T11:48:35.361Z,1015.06
2023-05-06T11:50:35.897Z,1015.06
2023-05-06T11:52:35.162Z,1014.9
2023-05-06T11:54:35.470Z,1014.9
2023-05-06T11:56:35.899Z,1014.94
2023-05-06T11:58:35.290Z,1014.94
2023-05-06T12:00:39.623Z,1014.89
2023-05-06T12:02:35.647Z,1014.89
2023-05-06T12:04:35.950Z,1014.92
2023-05-06T12:06:35.927Z,1014.92
2023-05-06T12:08:50.210Z,1014.95
2023-05-06T12:10:36.115Z,1014.95
2023-05-06T12:12:35.210Z,1015.12
2023-05-06T12:14:35.835Z,1015.12
2023-05-06T12:16:35.873Z,1014.97
2023-05-06T12:18:35.840Z,1014.97
2023-05-06T12:20:35.678Z,1014.92
2023-05-06T12:22:36.143Z,1014.92
2023-05-06T12:24:35.549Z,1014.94
2023-05-06T12:26:35.788Z,1014.94
2023-05-06T12:28:35.315Z,1014.97
2023-05-06T12:30:36.234Z,1014.97
2023-05-06T12:32:35.679Z,1014.85
2023-05-06T12:34:35.916Z,1014.85
2023-05-06T12:36:35.317Z,1015.01
2023-05-06T12:38:35.681Z,1015.01
2023-05-06T12:40:35.266Z,1014.95
2023-05-06T12:42:35.656Z,1014.95
2023-05-06T12:44:35.154Z,1014.96
2023-05-06T12:46:36.020Z,1014.96
2023-05-06T12:48:35.398Z,1014.96
2023-05-06T12:50:36.256Z,1014.96
2023-05-06T12:52:35.346Z,1014.98
2023-05-06T12:54:35.723Z,1014.98
2023-05-06T12:56:35.161Z,1015.02
2023-05-06T12:58:35.697Z,1014.96
2023-05-06T13:00:38.736Z,1014.96
2023-05-06T13:02:35.287Z,1014.96
2023-05-06T13:04:35.618Z,1014.96
2023-05-06T13:06:35.122Z,1014.98
2023-05-06T13:08:35.515Z,1014.98
2023-05-06T13:10:35.703Z,1015.03
2023-05-06T13:12:35.857Z,1015.03
2023-05-06T13:14:36.903Z,1015.1
2023-05-06T13:16:35.688Z,1015.1
2023-05-06T13:18:35.145Z,1015.13
2023-05-06T13:20:38.222Z,1015.13
2023-05-06T13:22:47.014Z,1015.14
2023-05-06T13:24:35.229Z,1015.14
2023-05-06T13:26:39.309Z,1015.16
2023-05-06T13:28:35.321Z,1015.16
2023-05-06T13:30:36.034Z,1015.31
2023-05-06T13:32:35.368Z,1015.31
2023-05-06T13:34:35.426Z,1015.15
2023-05-06T13:36:39.085Z,1015.15
2023-05-06T13:38:35.462Z,1015.13
2023-05-06T13:40:36.164Z,1015.13
2023-05-06T13:42:35.264Z,1015.13
2023-05-06T13:44:35.972Z,1015.13
2023-05-06T13:46:35.644Z,1015.02
2023-05-06T13:48:35.803Z,1015.02
2023-05-06T13:50:35.463Z,1015.01
2023-05-06T13:52:35.748Z,1015.01
2023-05-06T13:54:35.388Z,1015.04
2023-05-06T13:56:35.026Z,1015.04
2023-05-06T13:58:35.545Z,1014.89
2023-05-06T14:00:39.138Z,1014.89
2023-05-06T14:02:36.448Z,1014.92
2023-05-06T14:04:35.448Z,1014.92
2023-05-06T14:06:35.858Z,1014.94
2023-05-06T14:08:35.290Z,1014.94
2023-05-06T14:10:35.604Z,1014.92
2023-05-06T14:12:35.135Z,1014.92
2023-05-06T14:14:35.682Z,1014.92
2023-05-06T14:16:35.615Z,1014.92
2023-05-06T14:18:37.959Z,1014.83
2023-05-06T14:20:35.522Z,1014.83
2023-05-06T14:22:35.872Z,1014.85
2023-05-06T14:24:35.661Z,1014.85
2023-05-06T14:26:35.117Z,1015.01
2023-05-06T14:28:35.700Z,1015.01
2023-05-06T14:30:35.224Z,1014.78
2023-05-06T14:32:36.041Z,1014.78
2023-05-06T14:34:35.413Z,1014.82
2023-05-06T14:36:35.872Z,1014.82
2023-05-06T14:38:35.259Z,1014.87
2023-05-06T14:40:35.775Z,1014.87
2023-05-06T14:42:35.097Z,1014.95
2023-05-06T14:44:35.426Z,1014.95
2023-05-06T14:46:39.032Z,1014.76
2023-05-06T14:48:35.519Z,1014.76
2023-05-06T14:50:36.214Z,1014.73
2023-05-06T14:52:35.503Z,1014.73
2023-05-06T14:54:35.963Z,1014.88
2023-05-06T14:56:35.355Z,1014.88
2023-05-06T14:58:35.941Z,1014.76
2023-05-06T15:00:38.531Z,1014.76
2023-05-06T15:02:35.362Z,1014.8
2023-05-06T15:04:35.738Z,1014.8
2023-05-06T15:06:35.068Z,1014.79
2023-05-06T15:08:35.649Z,1014.79
2023-05-06T15:10:35.376Z,1014.74
2023-05-06T15:12:35.649Z,1014.74
2023-05-06T15:14:35.098Z,1014.85
2023-05-06T15:16:35.836Z,1014.85
2023-05-06T15:18:35.279Z,1014.77
2023-05-06T15:20:35.894Z,1014.77
2023-05-06T15:22:36.237Z,1014.8
2023-05-06T15:24:35.753Z,1014.8
2023-05-06T15:26:35.101Z,1014.85
2023-05-06T15:28:36.109Z,1014.85
2023-05-06T15:30:35.180Z,1014.83
2023-05-06T15:32:36.004Z,1014.83
2023-05-06T15:34:35.292Z,1014.71
2023-05-06T15:36:35.650Z,1014.71
2023-05-06T15:38:35.017Z,1014.81
2023-05-06T15:40:36.013Z,1014.81
2023-05-06T15:42:35.077Z,1014.91
2023-05-06T15:44:38.978Z,1014.91
2023-05-06T15:46:35.375Z,1014.93
2023-05-06T15:48:36.487Z,1014.93
2023-05-06T15:52:35.730Z,1014.95
2023-05-06T15:54:37.423Z,1014.89
2023-05-06T15:57:04.912Z,1014.82
2023-05-06T15:58:35.143Z,1014.82
2023-05-06T16:00:40.152Z,1014.82
2023-05-06T16:06:35.747Z,1014.78
2023-05-06T16:08:35.264Z,1014.78
2023-05-06T16:10:36.170Z,1014.9
2023-05-06T16:12:35.318Z,1014.9
2023-05-06T16:14:35.672Z,1014.99
2023-05-06T16:16:35.973Z,1014.99
2023-05-06T16:18:35.706Z,1014.97
2023-05-06T16:20:35.636Z,1014.97
2023-05-06T16:22:36.590Z,1014.9
2023-05-06T16:24:34.936Z,1014.9
2023-05-06T16:26:35.491Z,1014.9
2023-05-06T16:28:37.385Z,1014.82
2023-05-06T16:30:35.730Z,1014.82
2023-05-06T16:32:36.019Z,1015.04
2023-05-06T16:34:35.888Z,1015.04
2023-05-06T16:36:35.401Z,1014.91
2023-05-06T16:38:35.661Z,1014.91
2023-05-06T16:40:36.006Z,1014.97
2023-05-06T16:42:35.431Z,1014.97
2023-05-06T16:44:34.973Z,1014.93
2023-05-06T16:46:36.156Z,1014.93
2023-05-06T16:48:36.700Z,1014.89
2023-05-06T16:50:36.061Z,1014.89
2023-05-06T16:52:35.203Z,1014.93
2023-05-06T16:54:35.819Z,1014.93
2023-05-06T16:56:50.641Z,1014.96
2023-05-06T16:58:35.679Z,1014.96
2023-05-06T17:00:38.200Z,1015
2023-05-06T17:02:35.836Z,1015
2023-05-06T17:04:35.926Z,1014.9
2023-05-06T17:06:35.381Z,1014.9
2023-05-06T17:08:38.535Z,1015.03
2023-05-06T17:10:35.744Z,1015.03
2023-05-06T17:12:35.695Z,1015
2023-05-06T17:14:35.339Z,1015
2023-05-06T17:16:35.841Z,1014.9
2023-05-06T17:18:36.053Z,1014.9
2023-05-06T17:20:51.540Z,1014.98
2023-05-06T17:22:37.905Z,1014.98
2023-05-06T17:24:35.478Z,1014.98
2023-05-06T17:26:38.768Z,1014.98
2023-05-06T17:28:35.322Z,1015.02
2023-05-06T17:30:36.156Z,1015.02
2023-05-06T17:32:35.357Z,1015
2023-05-06T17:34:35.691Z,1015
2023-05-06T17:36:35.056Z,1015.08
2023-05-06T17:38:35.512Z,1015.08
2023-05-06T17:40:35.474Z,1015.01
2023-05-06T17:42:35.642Z,1015.01
2023-05-06T17:44:35.903Z,1015.18
2023-05-06T17:46:35.790Z,1015.18
2023-05-06T17:48:35.922Z,1014.94
2023-05-06T17:50:35.502Z,1014.94
2023-05-06T17:52:35.875Z,1015.15
2023-05-06T17:54:35.241Z,1015.15
2023-05-06T17:56:35.609Z,1015.07
2023-05-06T17:58:35.277Z,1015.07
2023-05-06T18:00:38.223Z,1015.19
2023-05-06T18:02:36.219Z,1015.19
2023-05-06T18:04:35.874Z,1015.07
2023-05-06T18:06:34.993Z,1015.07
2023-05-06T18:08:35.484Z,1015.15
2023-05-06T18:10:35.141Z,1015.15
2023-05-06T18:12:35.515Z,1015.2
2023-05-06T18:14:35.789Z,1015.2
2023-05-06T18:16:35.468Z,1015.15
2023-05-06T18:18:35.710Z,1015.15
2023-05-06T18:20:35.187Z,1015.27
2023-05-06T18:22:35.518Z,1015.27
2023-05-06T18:24:49.510Z,1015.31
2023-05-06T18:26:55.661Z,1015.31
2023-05-06T18:28:35.714Z,1015.24
2023-05-06T18:30:35.199Z,1015.24
2023-05-06T18:32:36.304Z,1015.26
2023-05-06T18:34:35.163Z,1015.26
2023-05-06T18:36:35.507Z,1015.26
2023-05-06T18:38:36.123Z,1015.26
2023-05-06T18:40:35.757Z,1015.29
2023-05-06T18:42:35.657Z,1015.29
2023-05-06T18:44:35.648Z,1015.24
2023-05-06T18:46:35.321Z,1015.24
2023-05-06T18:48:35.602Z,1015.31
2023-05-06T18:50:35.098Z,1015.31
2023-05-06T18:52:35.779Z,1015.35
2023-05-06T18:54:38.120Z,1015.35
2023-05-06T18:56:35.922Z,1015.23
2023-05-06T18:58:35.284Z,1015.23
2023-05-06T19:00:38.567Z,1015.36
2023-05-06T19:02:38.574Z,1015.36
2023-05-06T19:04:36.167Z,1015.34
2023-05-06T19:06:35.708Z,1015.34
2023-05-06T19:08:35.165Z,1015.35
2023-05-06T19:10:35.713Z,1015.35
2023-05-06T19:12:35.143Z,1015.29
2023-05-06T19:14:36.871Z,1015.29
2023-05-06T19:16:35.782Z,1015.35
2023-05-06T19:18:35.064Z,1015.35
2023-05-06T19:20:35.598Z,1015.36
2023-05-06T19:22:35.169Z,1015.36
2023-05-06T19:24:35.610Z,1015.35
2023-05-06T19:26:35.212Z,1015.35
2023-05-06T19:28:35.691Z,1015.35
2023-05-06T19:30:35.312Z,1015.35
2023-05-06T19:32:36.131Z,1015.31
2023-05-06T19:34:35.514Z,1015.31
2023-05-06T19:36:35.836Z,1015.32
2023-05-06T19:38:35.135Z,1015.32
2023-05-06T19:40:35.824Z,1015.28
2023-05-06T19:42:35.264Z,1015.3
2023-05-06T19:44:35.979Z,1015.3
2023-05-06T19:46:35.586Z,1015.26
2023-05-06T19:48:36.875Z,1015.26
2023-05-06T19:50:35.964Z,1015.27
2023-05-06T19:52:35.091Z,1015.27
2023-05-06T19:54:35.454Z,1015.2
2023-05-06T19:56:35.925Z,1015.2
2023-05-06T19:58:35.306Z,1015.18
2023-05-06T20:00:40.665Z,1015.18
2023-05-06T20:02:35.590Z,1015.13
2023-05-06T20:04:35.922Z,1015.13
2023-05-06T20:06:35.266Z,1015.1
2023-05-06T20:08:35.683Z,1015.1
2023-05-06T20:10:35.190Z,1015.13
2023-05-06T20:12:35.663Z,1015.13
2023-05-06T20:14:35.952Z,1015.06
2023-05-06T20:16:35.625Z,1015.06
2023-05-06T20:18:35.962Z,1015.02
2023-05-06T20:20:38.534Z,1015.02
2023-05-06T20:22:35.835Z,1015.11
2023-05-06T20:24:35.229Z,1015.11
2023-05-06T20:26:36.379Z,1015.12
2023-05-06T20:28:35.203Z,1015.12
2023-05-06T20:30:36.206Z,1015.06
2023-05-06T20:32:35.327Z,1015.06
2023-05-06T20:34:35.575Z,1015.16
2023-05-06T20:36:35.044Z,1015.16
2023-05-06T20:38:35.539Z,1015.12
2023-05-06T20:40:35.230Z,1015.12
2023-05-06T20:42:37.027Z,1015.07
2023-05-06T20:44:35.121Z,1015.07
2023-05-06T20:46:36.179Z,1015.15
2023-05-06T20:48:37.797Z,1015.15
2023-05-06T20:50:36.085Z,1015.21
2023-05-06T20:52:35.502Z,1015.21
2023-05-06T20:54:35.984Z,1015.07
2023-05-06T20:56:35.334Z,1015.07
2023-05-06T20:58:35.901Z,1015.12
2023-05-06T21:00:38.794Z,1015.12
2023-05-06T21:02:40.025Z,1015.09
2023-05-06T21:04:35.723Z,1015.09
2023-05-06T21:06:35.242Z,1014.98
2023-05-06T21:08:35.711Z,1014.98
2023-05-06T21:10:35.376Z,1014.93
2023-05-06T21:12:35.834Z,1014.93
2023-05-06T21:14:35.141Z,1014.83
2023-05-06T21:16:35.686Z,1014.83
2023-05-06T21:18:35.734Z,1014.95
2023-05-06T21:20:38.676Z,1014.95
2023-05-06T21:22:35.171Z,1015.06
2023-05-06T21:24:35.680Z,1015.06
2023-05-06T21:26:35.074Z,1014.9
2023-05-06T21:28:35.780Z,1014.9
2023-05-06T21:30:35.362Z,1015.08
2023-05-06T21:32:35.922Z,1015.08
2023-05-06T21:34:35.205Z,1015.16
2023-05-06T21:36:35.738Z,1015.16
2023-05-06T21:38:35.326Z,1015.04
2023-05-06T21:40:35.971Z,1015.04
2023-05-06T21:42:35.120Z,1015.03
2023-05-06T21:44:35.620Z,1015.03
2023-05-06T21:46:35.321Z,1015.01
2023-05-06T21:48:35.587Z,1015.01
2023-05-06T21:50:35.947Z,1015.05
2023-05-06T21:52:35.420Z,1015.05
2023-05-06T21:54:35.072Z,1015.02
2023-05-06T21:56:35.729Z,1015.02
2023-05-06T21:58:35.207Z,1015.06
2023-05-06T22:00:36.123Z,1015.06
2023-05-06T22:02:36.232Z,1015.05
2023-05-06T22:04:35.300Z,1015.05
2023-05-06T22:06:35.679Z,1015.06
2023-05-06T22:08:35.163Z,1015.06
2023-05-06T22:10:35.831Z,1014.88
2023-05-06T22:12:35.310Z,1014.88
2023-05-06T22:14:44.922Z,1014.99
2023-05-06T22:16:35.891Z,1014.99
2023-05-06T22:18:35.984Z,1014.92
2023-05-06T22:20:35.845Z,1014.92
2023-05-06T22:22:35.067Z,1014.91
2023-05-06T22:24:35.780Z,1014.91
2023-05-06T22:26:35.183Z,1014.91
2023-05-06T22:28:35.867Z,1014.91
2023-05-06T22:30:35.279Z,1014.85
2023-05-06T22:32:36.037Z,1014.85
2023-05-06T22:34:35.486Z,1014.92
2023-05-06T22:36:35.918Z,1014.92
2023-05-06T22:38:35.403Z,1014.94
2023-05-06T22:40:35.994Z,1014.94
2023-05-06T22:42:35.650Z,1014.99
2023-05-06T22:44:35.411Z,1014.99
2023-05-06T22:46:36.161Z,1014.88
2023-05-06T22:48:35.328Z,1014.88
2023-05-06T22:50:35.761Z,1014.86
2023-05-06T22:52:35.396Z,1014.86
2023-05-06T22:54:35.752Z,1014.88
2023-05-06T22:56:35.388Z,1014.88
2023-05-06T22:58:35.912Z,1014.93
2023-05-06T23:00:35.516Z,1014.93
2023-05-06T23:02:36.231Z,1014.87
2023-05-06T23:04:35.741Z,1014.97
2023-05-06T23:06:35.819Z,1014.97
2023-05-06T23:08:35.100Z,1014.91
2023-05-06T23:10:35.768Z,1014.91
2023-05-06T23:12:35.240Z,1014.95
2023-05-06T23:14:35.681Z,1014.95
2023-05-06T23:16:35.592Z,1014.94
2023-05-06T23:18:36.075Z,1014.94
2023-05-06T23:20:35.608Z,1014.89
2023-05-06T23:22:36.025Z,1014.89
2023-05-06T23:24:35.577Z,1014.89
2023-05-06T23:26:35.074Z,1014.89
2023-05-06T23:28:35.601Z,1015.03
2023-05-06T23:30:35.519Z,1015.03
2023-05-06T23:32:35.164Z,1014.86
2023-05-06T23:34:35.683Z,1014.86
2023-05-06T23:36:35.053Z,1014.86
2023-05-06T23:38:35.708Z,1014.86
2023-05-06T23:40:35.442Z,1014.89
2023-05-06T23:42:37.113Z,1014.89
2023-05-06T23:44:35.459Z,1014.96
2023-05-06T23:46:36.207Z,1014.96
2023-05-06T23:48:35.509Z,1014.95
2023-05-06T23:50:37.165Z,1014.95
2023-05-06T23:52:35.825Z,1014.88
2023-05-06T23:54:35.306Z,1014.88
2023-05-06T23:56:35.764Z,1014.83
2023-05-06T23:58:35.294Z,1014.83
